Time;durP1;ratioP1;P1;durP2;ratioP2;P2;SDS_P1;SDS_P2;PMS_P1;PMS_P2;Temp;Humidity;BMP_temperature;BMP_pressure;BME280_temperature;BME280_humidity;BME280_pressure;Samples;Min_cycle;Max_cycle;Signal;HPM_P1;HPM_P2
2022/09/28 00:00:05;;;;;;;2.83;1.80;;;14.60;99.90;;;;;;5021282;28;20388;-55
2022/09/28 00:02:31;;;;;;;4.97;2.10;;;14.60;99.90;;;;;;5047481;28;20444;-57
2022/09/28 00:04:57;;;;;;;5.20;2.25;;;14.50;99.90;;;;;;5029366;28;20033;-56
2022/09/28 00:07:22;;;;;;;5.15;2.22;;;14.60;99.90;;;;;;5022441;28;20076;-57
2022/09/28 00:09:48;;;;;;;3.78;2.17;;;14.60;99.90;;;;;;5028884;28;20033;-58
2022/09/28 00:12:14;;;;;;;4.10;2.25;;;14.60;99.90;;;;;;5023486;28;20037;-55
2022/09/28 00:14:41;;;;;;;9.10;2.35;;;14.60;99.90;;;;;;5052270;28;20091;-55
2022/09/28 00:17:07;;;;;;;4.13;2.40;;;14.50;99.90;;;;;;5025665;28;20037;-56
2022/09/28 00:19:33;;;;;;;4.35;2.13;;;14.50;99.90;;;;;;5023926;28;20510;-56
2022/09/28 00:21:59;;;;;;;2.58;2.03;;;14.50;99.90;;;;;;5040886;28;20045;-57
2022/09/28 00:24:24;;;;;;;4.65;2.25;;;14.60;99.90;;;;;;5025994;28;20042;-57
2022/09/28 00:26:52;;;;;;;7.60;2.10;;;14.70;99.90;;;;;;5027535;28;20029;-57
2022/09/28 00:29:25;;;;;;;4.50;2.10;;;14.80;99.90;;;;;;5019180;28;20026;-57
2022/09/28 00:31:56;;;;;;;4.40;2.15;;;14.70;99.90;;;;;;5029782;28;20025;-57
2022/09/28 00:34:21;;;;;;;4.15;2.00;;;14.70;99.90;;;;;;5027886;28;20405;-56
2022/09/28 00:36:48;;;;;;;3.13;2.08;;;14.70;99.90;;;;;;5027072;28;20030;-58
2022/09/28 00:39:14;;;;;;;2.50;2.00;;;14.80;99.90;;;;;;5025814;28;20068;-55
2022/09/28 00:41:41;;;;;;;5.40;2.00;;;14.80;99.90;;;;;;5031414;28;20176;-57
2022/09/28 00:44:36;;;;;;;3.13;2.15;;;14.80;99.90;;;;;;5038102;28;20045;-57
2022/09/28 00:47:14;;;;;;;4.40;2.08;;;14.70;99.90;;;;;;5027091;28;20044;-55
2022/09/28 00:49:49;;;;;;;5.72;2.00;;;14.60;99.90;;;;;;5022567;28;20030;-58
2022/09/28 00:52:24;;;;;;;4.65;1.83;;;14.70;99.90;;;;;;5022689;28;20033;-55
2022/09/28 00:54:52;;;;;;;4.05;2.10;;;14.70;99.90;;;;;;5032035;28;20099;-58
2022/09/28 00:57:19;;;;;;;3.88;1.80;;;14.70;99.90;;;;;;5020026;28;20084;-57
2022/09/28 00:59:45;;;;;;;3.88;1.98;;;14.70;99.90;;;;;;5022589;28;20113;-56
2022/09/28 01:02:11;;;;;;;4.05;1.90;;;14.80;99.90;;;;;;5024631;28;20137;-56
2022/09/28 01:04:38;;;;;;;4.05;1.92;;;14.90;99.90;;;;;;5022436;28;20525;-57
2022/09/28 01:07:05;;;;;;;3.80;1.90;;;15.00;99.90;;;;;;5020505;28;20080;-56
2022/09/28 01:09:31;;;;;;;3.25;2.00;;;15.00;99.90;;;;;;5032681;28;20036;-55
2022/09/28 01:11:57;;;;;;;3.35;2.05;;;14.90;99.90;;;;;;5027220;28;20126;-55
2022/09/28 01:14:24;;;;;;;6.40;1.90;;;14.90;99.90;;;;;;5040641;28;20136;-55
2022/09/28 01:17:14;;;;;;;5.28;2.08;;;14.80;99.90;;;;;;5024621;28;20053;-57
2022/09/28 01:20:21;;;;;;;3.83;1.70;;;14.70;99.90;;;;;;5018456;28;20037;-58
2022/09/28 01:22:52;;;;;;;3.17;1.92;;;14.80;99.90;;;;;;5027072;28;20022;-58
2022/09/28 01:25:33;;;;;;;2.65;1.90;;;14.70;99.90;;;;;;5023833;28;20076;-56
2022/09/28 01:28:15;;;;;;;7.78;2.50;;;14.70;99.90;;;;;;5024041;28;20088;-57
2022/09/28 01:30:49;;;;;;;4.03;2.45;;;14.70;99.90;;;;;;5024818;28;20025;-57
2022/09/28 01:33:23;;;;;;;3.55;2.45;;;14.60;99.90;;;;;;5024754;28;20041;-57
2022/09/28 01:36:00;;;;;;;4.45;1.92;;;14.70;99.90;;;;;;5024989;28;20496;-56
2022/09/28 01:38:33;;;;;;;2.92;1.90;;;14.70;99.90;;;;;;5024635;28;20053;-56
2022/09/28 01:41:00;;;;;;;2.60;1.92;;;14.70;99.90;;;;;;5025346;28;20037;-56
2022/09/28 01:43:27;;;;;;;4.07;1.90;;;14.70;99.90;;;;;;5024388;28;20034;-57
2022/09/28 01:46:05;;;;;;;2.72;1.80;;;14.60;99.90;;;;;;5024294;28;20052;-58
2022/09/28 01:48:56;;;;;;;4.85;2.00;;;14.30;99.90;;;;;;5025336;28;20037;-58
2022/09/28 01:51:34;;;;;;;4.80;2.17;;;14.30;99.90;;;;;;5020365;28;20440;-55
2022/09/28 01:54:11;;;;;;;8.38;2.25;;;14.40;99.90;;;;;;5025858;28;20033;-58
2022/09/28 01:56:45;;;;;;;4.78;1.80;;;14.30;99.90;;;;;;5042451;28;20503;-57
2022/09/28 01:59:23;;;;;;;5.40;2.40;;;14.30;99.90;;;;;;5026559;28;20437;-58
2022/09/28 02:02:15;;;;;;;2.53;1.90;;;14.30;99.90;;;;;;5020268;28;20037;-57
2022/09/28 02:04:47;;;;;;;2.97;1.92;;;14.30;99.90;;;;;;5030772;28;20045;-58
2022/09/28 02:07:33;;;;;;;3.13;1.98;;;14.20;99.90;;;;;;5027244;28;20042;-56
2022/09/28 02:10:05;;;;;;;4.65;1.90;;;14.10;99.90;;;;;;5029856;28;20116;-59
2022/09/28 02:12:52;;;;;;;4.43;2.20;;;14.00;99.90;;;;;;4971201;28;20098;-57
2022/09/28 02:15:22;;;;;;;4.15;2.13;;;14.20;99.90;;;;;;4971072;28;20181;-58
2022/09/28 02:17:49;;;;;;;3.95;2.47;;;14.30;99.90;;;;;;4971886;28;20031;-57
2022/09/28 02:20:15;;;;;;;6.00;2.33;;;14.40;99.90;;;;;;4970946;28;20454;-57
2022/09/28 02:22:54;;;;;;;3.20;1.92;;;14.40;99.90;;;;;;4971022;28;20206;-58
2022/09/28 02:25:48;;;;;;;4.03;2.20;;;14.50;99.90;;;;;;4970127;28;20041;-57
2022/09/28 02:28:14;;;;;;;4.45;1.90;;;14.40;99.90;;;;;;4967577;28;20035;-58
2022/09/28 02:30:43;;;;;;;6.53;2.00;;;14.40;99.90;;;;;;4971289;28;20208;-57
2022/09/28 02:33:14;;;;;;;4.60;1.70;;;14.40;99.90;;;;;;4954166;28;20390;-56
2022/09/28 02:35:41;;;;;;;3.58;2.60;;;14.30;99.90;;;;;;4963208;28;20051;-57
2022/09/28 02:38:10;;;;;;;3.15;2.08;;;14.40;99.90;;;;;;4970701;28;20617;-56
2022/09/28 02:40:39;;;;;;;5.70;2.17;;;14.40;99.90;;;;;;4966853;28;20474;-56
2022/09/28 02:43:08;;;;;;;4.20;2.33;;;14.30;99.90;;;;;;4944131;28;20045;-56
2022/09/28 02:45:55;;;;;;;4.63;1.88;;;14.30;99.90;;;;;;4985047;28;20054;-57
2022/09/28 02:48:52;;;;;;;4.93;2.10;;;14.30;99.90;;;;;;4989961;28;20081;-57
2022/09/28 02:51:37;;;;;;;2.90;2.28;;;14.40;99.90;;;;;;5017474;28;20104;-56
2022/09/28 02:54:19;;;;;;;3.00;2.38;;;14.50;99.90;;;;;;5023755;28;20041;-57
2022/09/28 02:56:50;;;;;;;2.67;1.98;;;14.40;99.90;;;;;;5026698;28;20018;-55
2022/09/28 02:59:16;;;;;;;3.22;2.50;;;14.40;99.90;;;;;;5024919;28;20084;-55
2022/09/28 03:02:20;;;;;;;4.70;2.15;;;14.30;99.90;;;;;;5025741;28;20474;-55
2022/09/28 03:05:18;;;;;;;4.43;2.60;;;14.30;99.90;;;;;;5019910;28;20081;-55
2022/09/28 03:07:54;;;;;;;3.42;2.28;;;14.40;99.90;;;;;;4987165;28;20046;-56
2022/09/28 03:10:32;;;;;;;6.18;2.42;;;14.50;99.90;;;;;;4986727;28;20026;-58
2022/09/28 03:12:58;;;;;;;3.78;2.38;;;14.60;99.90;;;;;;4989872;28;20046;-57
2022/09/28 03:15:30;;;;;;;3.85;2.50;;;14.70;99.90;;;;;;4987060;28;20038;-55
2022/09/28 03:17:56;;;;;;;5.55;2.80;;;14.80;99.90;;;;;;4989030;28;20105;-58
2022/09/28 03:20:22;;;;;;;5.72;2.38;;;14.90;99.90;;;;;;4989056;28;20121;-58
2022/09/28 03:22:48;;;;;;;4.63;2.60;;;14.90;99.90;;;;;;4990075;28;20046;-57
2022/09/28 03:25:17;;;;;;;3.78;2.53;;;15.00;99.90;;;;;;4971652;28;20044;-57
2022/09/28 03:27:43;;;;;;;3.13;2.70;;;15.00;99.90;;;;;;4995279;28;20450;-57
2022/09/28 03:30:09;;;;;;;3.15;2.33;;;15.10;99.90;;;;;;4988777;28;20047;-58
2022/09/28 03:32:35;;;;;;;4.13;2.15;;;15.10;99.90;;;;;;4958665;28;20406;-57
2022/09/28 03:35:02;;;;;;;4.85;2.65;;;15.10;99.90;;;;;;4989809;28;20040;-56
2022/09/28 03:37:27;;;;;;;2.53;2.05;;;15.20;99.90;;;;;;4994885;28;20042;-57
2022/09/28 03:39:53;;;;;;;5.43;2.65;;;15.00;99.90;;;;;;4969925;28;20382;-57
2022/09/28 03:42:19;;;;;;;7.70;2.85;;;14.80;99.90;;;;;;4991826;28;20072;-57
2022/09/28 03:44:45;;;;;;;3.45;2.63;;;14.70;99.90;;;;;;5021506;28;20049;-58
2022/09/28 03:47:11;;;;;;;4.40;2.65;;;14.80;99.90;;;;;;5028335;28;20504;-57
2022/09/28 03:49:37;;;;;;;4.45;2.70;;;15.00;99.90;;;;;;5022909;28;20112;-57
2022/09/28 03:52:03;;;;;;;7.10;2.90;;;15.00;99.90;;;;;;5025443;28;20030;-55
2022/09/28 03:54:29;;;;;;;2.65;2.22;;;15.00;99.90;;;;;;5027085;28;20041;-57
2022/09/28 03:56:55;;;;;;;3.80;2.58;;;15.10;99.90;;;;;;5033387;28;20500;-57
2022/09/28 03:59:20;;;;;;;5.28;2.65;;;15.10;99.90;;;;;;5022195;28;20026;-53
2022/09/28 04:01:50;;;;;;;4.35;2.42;;;15.20;99.90;;;;;;5025261;28;20021;-53
2022/09/28 04:04:17;;;;;;;2.90;2.22;;;15.30;99.90;;;;;;5023774;28;20033;-54
2022/09/28 04:06:43;;;;;;;7.07;2.60;;;15.30;99.90;;;;;;5027063;28;20032;-53
2022/09/28 04:09:08;;;;;;;5.20;2.72;;;15.30;99.90;;;;;;5023403;28;20032;-54
2022/09/28 04:11:34;;;;;;;3.80;2.50;;;15.30;99.90;;;;;;5024528;28;20037;-54
2022/09/28 04:14:00;;;;;;;4.72;2.63;;;15.30;99.90;;;;;;5022393;28;20045;-56
2022/09/28 04:16:26;;;;;;;7.18;2.78;;;15.20;99.90;;;;;;5032542;28;20560;-55
2022/09/28 04:18:52;;;;;;;7.88;2.60;;;14.90;99.90;;;;;;5026780;28;20032;-53
2022/09/28 04:21:19;;;;;;;3.28;2.50;;;15.00;99.90;;;;;;5023306;28;20084;-55
2022/09/28 04:23:45;;;;;;;4.65;2.53;;;15.10;99.90;;;;;;5026454;28;20040;-56
2022/09/28 04:26:17;;;;;;;3.78;2.63;;;15.20;99.90;;;;;;5030675;28;20117;-58
2022/09/28 04:31:31;;;;;;;4.00;2.70;;;;;;;;;;5025745;28;20259;-55
2022/09/28 04:33:57;;;;;;;5.32;3.03;;;15.40;99.90;;;;;;5025997;28;20022;-57
2022/09/28 04:36:23;;;;;;;2.78;2.22;;;15.30;99.90;;;;;;5026070;28;20092;-57
2022/09/28 04:38:51;;;;;;;5.13;4.20;;;15.30;99.90;;;;;;5026908;28;20033;-55
2022/09/28 04:41:17;;;;;;;6.65;3.90;;;15.40;99.90;;;;;;5021869;28;20517;-56
2022/09/28 04:43:45;;;;;;;4.47;3.70;;;15.40;99.90;;;;;;5022426;28;20136;-57
2022/09/28 04:46:11;;;;;;;4.13;3.00;;;15.40;99.90;;;;;;5030778;28;20454;-56
2022/09/28 04:48:36;;;;;;;6.82;2.88;;;15.40;99.90;;;;;;5024742;28;20117;-57
2022/09/28 04:51:03;;;;;;;5.25;3.13;;;15.50;99.90;;;;;;5024333;28;20030;-55
2022/09/28 04:53:29;;;;;;;6.00;3.38;;;15.50;99.90;;;;;;5024338;28;20022;-57
2022/09/28 04:56:00;;;;;;;8.48;3.78;;;15.60;99.90;;;;;;5022256;28;20029;-56
2022/09/28 04:58:26;;;;;;;7.07;3.55;;;15.60;99.90;;;;;;5024675;28;20041;-54
2022/09/28 05:00:55;;;;;;;8.32;3.53;;;15.70;99.90;;;;;;5022307;28;20025;-54
2022/09/28 05:03:21;;;;;;;4.70;3.20;;;15.50;99.90;;;;;;5029183;28;20026;-54
2022/09/28 05:05:48;;;;;;;4.97;3.22;;;15.40;99.90;;;;;;5028098;28;20461;-54
2022/09/28 05:08:14;;;;;;;7.30;3.25;;;15.40;99.90;;;;;;5031662;28;20112;-52
2022/09/28 05:10:40;;;;;;;9.10;3.42;;;15.50;99.90;;;;;;5027903;28;20029;-56
2022/09/28 05:13:07;;;;;;;7.60;3.30;;;15.50;99.90;;;;;;5025023;28;20053;-55
2022/09/28 05:15:34;;;;;;;6.30;3.25;;;15.50;99.90;;;;;;5031908;28;20246;-53
2022/09/28 05:18:00;;;;;;;13.93;6.80;;;15.60;99.90;;;;;;5019639;28;20033;-56
2022/09/28 05:20:26;;;;;;;10.32;4.47;;;15.60;99.90;;;;;;5024552;28;20033;-55
2022/09/28 05:22:51;;;;;;;6.05;3.83;;;15.70;99.90;;;;;;5025337;28;20025;-56
2022/09/28 05:25:18;;;;;;;4.63;3.45;;;15.50;99.90;;;;;;5023669;28;20396;-56
2022/09/28 05:27:43;;;;;;;5.35;2.45;;;15.00;99.90;;;;;;5025711;28;20091;-54
2022/09/28 05:30:10;;;;;;;3.58;2.20;;;14.60;99.90;;;;;;5017131;28;21549;-54
2022/09/28 05:32:40;;;;;;;7.45;3.22;;;14.20;99.90;;;;;;5014049;28;20041;-56
2022/09/28 05:35:06;;;;;;;5.22;3.80;;;14.30;99.90;;;;;;5026301;28;20041;-56
2022/09/28 05:37:33;;;;;;;6.63;4.53;;;14.50;99.90;;;;;;5027003;28;20444;-55
2022/09/28 05:39:59;;;;;;;5.65;2.90;;;;;;;;;;5026804;28;20037;-57
2022/09/28 05:42:25;;;;;;;7.55;3.72;;;;;;;;;;5023835;28;20061;-57
2022/09/28 05:44:51;;;;;;;4.40;3.30;;;15.20;99.90;;;;;;5026026;28;20056;-59
2022/09/28 05:47:17;;;;;;;6.40;3.05;;;15.30;99.90;;;;;;5029644;28;20052;-56
2022/09/28 05:49:43;;;;;;;7.97;2.72;;;15.40;99.90;;;;;;5028558;28;20045;-59
2022/09/28 05:52:09;;;;;;;5.57;3.35;;;15.40;99.90;;;;;;5028855;28;20120;-56
2022/09/28 05:54:34;;;;;;;6.20;2.83;;;15.50;99.90;;;;;;5013098;28;20072;-58
2022/09/28 05:57:00;;;;;;;5.82;3.13;;;;;;;;;;5027803;28;20092;-56
2022/09/28 05:59:26;;;;;;;4.47;2.88;;;15.60;99.90;;;;;;5028232;28;20095;-57
2022/09/28 06:01:52;;;;;;;6.22;3.40;;;15.60;99.90;;;;;;5024389;28;20033;-57
2022/09/28 06:04:17;;;;;;;6.70;3.70;;;15.60;99.90;;;;;;5026547;28;20120;-55
2022/09/28 06:06:43;;;;;;;4.15;3.38;;;15.60;99.90;;;;;;5025898;28;20497;-53
2022/09/28 06:09:09;;;;;;;9.07;3.65;;;15.60;99.90;;;;;;5030405;28;20112;-57
2022/09/28 06:11:35;;;;;;;5.45;3.67;;;15.60;99.90;;;;;;5024398;28;20033;-56
2022/09/28 06:14:00;;;;;;;6.72;3.17;;;15.60;99.90;;;;;;5029179;28;20053;-54
2022/09/28 06:16:26;;;;;;;5.70;3.30;;;15.50;99.90;;;;;;5029652;28;20109;-55
2022/09/28 06:18:52;;;;;;;3.75;3.25;;;15.60;99.90;;;;;;5022767;28;20038;-53
2022/09/28 06:21:18;;;;;;;4.90;3.40;;;15.40;99.90;;;;;;5035663;28;20065;-54
2022/09/28 06:23:43;;;;;;;4.00;2.97;;;15.40;99.90;;;;;;5035909;28;20064;-56
2022/09/28 06:26:09;;;;;;;6.80;4.55;;;15.40;99.90;;;;;;5044958;28;20049;-54
2022/09/28 06:28:35;;;;;;;5.95;4.10;;;15.20;99.90;;;;;;5027427;28;20128;-54
2022/09/28 06:31:01;;;;;;;15.18;10.88;;;15.00;99.90;;;;;;5030301;28;20029;-54
2022/09/28 06:33:27;;;;;;;5.60;3.92;;;15.20;99.90;;;;;;5024047;28;20056;-55
2022/09/28 06:35:52;;;;;;;6.70;3.50;;;15.40;99.90;;;;;;5023800;28;20037;-55
2022/09/28 06:38:18;;;;;;;5.95;3.10;;;15.60;99.90;;;;;;5020980;28;20661;-56
2022/09/28 06:40:44;;;;;;;14.15;3.42;;;15.70;99.90;;;;;;5026170;28;20045;-55
2022/09/28 06:43:13;;;;;;;6.20;3.17;;;15.80;99.90;;;;;;5022273;28;21513;-55
2022/09/28 06:45:41;;;;;;;5.15;3.25;;;15.90;99.90;;;;;;5029527;28;20045;-56
2022/09/28 06:48:08;;;;;;;3.75;2.78;;;16.00;99.90;;;;;;5021085;28;20038;-55
2022/09/28 06:50:36;;;;;;;3.90;2.60;;;16.00;99.90;;;;;;5023789;28;20030;-55
2022/09/28 06:53:05;;;;;;;11.32;8.25;;;15.70;99.90;;;;;;5028744;28;20030;-55
2022/09/28 06:55:31;;;;;;;9.18;4.60;;;15.70;99.90;;;;;;5020728;28;20477;-57
2022/09/28 06:57:59;;;;;;;5.68;3.53;;;15.70;99.90;;;;;;5024964;28;20029;-57
2022/09/28 07:00:32;;;;;;;8.30;3.78;;;15.30;99.90;;;;;;5021288;28;20038;-56
2022/09/28 07:02:59;;;;;;;6.13;4.82;;;15.40;99.90;;;;;;5025956;28;20030;-56
2022/09/28 07:05:28;;;;;;;8.77;5.40;;;15.40;99.90;;;;;;5014692;28;20022;-55
2022/09/28 07:07:57;;;;;;;12.73;8.40;;;15.40;99.90;;;;;;5018204;28;20037;-54
2022/09/28 07:10:24;;;;;;;9.35;4.30;;;15.30;99.90;;;;;;5019722;28;20057;-55
2022/09/28 07:12:51;;;;;;;5.95;3.13;;;15.20;99.90;;;;;;5026675;28;20540;-55
2022/09/28 07:15:17;;;;;;;5.07;4.20;;;15.30;99.90;;;;;;5024568;28;20139;-54
2022/09/28 07:17:43;;;;;;;6.90;4.80;;;15.40;99.90;;;;;;5025652;28;20477;-54
2022/09/28 07:20:09;;;;;;;13.75;7.57;;;15.40;99.90;;;;;;5027265;28;20044;-55
2022/09/28 07:22:34;;;;;;;4.68;2.92;;;15.50;99.90;;;;;;5032870;28;20037;-55
2022/09/28 07:25:00;;;;;;;4.75;3.45;;;15.50;99.90;;;;;;5025834;28;20035;-56
2022/09/28 07:27:26;;;;;;;4.25;2.47;;;15.50;99.90;;;;;;5029750;28;20365;-54
2022/09/28 07:29:52;;;;;;;3.90;2.47;;;15.30;99.90;;;;;;5027711;28;20029;-54
2022/09/28 07:32:20;;;;;;;4.07;2.92;;;14.90;99.90;;;;;;5011806;28;20034;-55
2022/09/28 07:34:47;;;;;;;6.53;4.05;;;15.00;99.90;;;;;;5025117;28;20046;-54
2022/09/28 07:37:14;;;;;;;4.82;3.72;;;15.10;99.90;;;;;;5020019;28;20072;-54
2022/09/28 07:42:28;;;;;;;4.43;3.40;;;15.20;99.90;;;;;;5018394;28;20421;-54
2022/09/28 07:44:57;;;;;;;3.65;3.00;;;15.50;99.90;;;;;;5023836;28;20432;-54
2022/09/28 07:47:27;;;;;;;3.78;3.35;;;15.40;99.90;;;;;;5064160;28;20124;-54
2022/09/28 07:49:55;;;;;;;4.07;3.47;;;15.50;99.90;;;;;;5071948;28;20051;-53
2022/09/28 07:52:24;;;;;;;2.53;2.13;;;15.70;99.90;;;;;;5072409;28;20044;-53
2022/09/28 07:54:53;;;;;;;4.93;3.03;;;15.70;99.90;;;;;;5069554;28;20036;-54
2022/09/28 07:57:23;;;;;;;6.30;2.67;;;15.70;99.90;;;;;;5022033;28;20454;-54
2022/09/28 07:59:49;;;;;;;4.53;3.00;;;15.80;99.90;;;;;;5066335;28;20040;-54
2022/09/28 08:02:19;;;;;;;4.30;2.90;;;16.20;99.90;;;;;;5070739;28;20028;-54
2022/09/28 08:04:48;;;;;;;2.50;2.30;;;16.70;99.90;;;;;;5048101;28;20557;-54
2022/09/28 08:07:16;;;;;;;3.13;2.15;;;;;;;;;;5064400;28;20103;-53
2022/09/28 08:09:42;;;;;;;3.65;2.40;;;18.10;99.90;;;;;;5071514;28;20367;-54
2022/09/28 08:12:09;;;;;;;5.40;2.90;;;17.70;99.90;;;;;;5069392;28;20507;-54
2022/09/28 08:14:36;;;;;;;2.90;2.22;;;;;;;;;;5044493;28;20131;-53
2022/09/28 08:17:03;;;;;;;3.53;2.13;;;19.10;99.90;;;;;;5060221;28;20028;-54
2022/09/28 08:22:14;;;;;;;3.28;2.35;;;19.40;99.90;;;;;;5020009;28;20084;-53
2022/09/28 08:24:40;;;;;;;2.65;1.95;;;;;;;;;;5057277;28;20052;-54
2022/09/28 08:27:06;;;;;;;6.22;3.15;;;19.90;99.90;;;;;;5031155;28;20503;-54
2022/09/28 08:29:32;;;;;;;2.47;1.70;;;;;;;;;;5022350;28;20030;-53
2022/09/28 08:31:58;;;;;;;4.80;2.42;;;20.50;99.90;;;;;;5042098;28;20044;-54
2022/09/28 08:34:26;;;;;;;1.75;1.65;;;20.90;99.90;;;;;;5026331;28;20504;-54
2022/09/28 08:36:52;;;;;;;4.90;2.15;;;;;;;;;;5023094;28;20042;-53
2022/09/28 08:39:18;;;;;;;4.40;2.25;;;;;;;;;;5023638;28;20033;-53
2022/09/28 08:41:55;;;;;;;3.45;2.53;;;;;;;;;;5028032;28;20025;-54
2022/09/28 08:44:23;;;;;;;2.25;1.60;;;21.20;99.90;;;;;;5041820;28;20049;-54
2022/09/28 08:46:55;;;;;;;3.38;2.17;;;20.60;99.90;;;;;;5023383;28;20033;-55
2022/09/28 08:49:37;;;;;;;3.33;1.77;;;21.30;99.90;;;;;;5030813;28;20087;-55
2022/09/28 08:52:18;;;;;;;5.47;1.75;;;21.20;99.90;;;;;;5022645;28;20029;-54
2022/09/28 08:54:55;;;;;;;2.47;1.88;;;20.90;99.90;;;;;;5037374;28;20038;-55
2022/09/28 08:57:43;;;;;;;2.63;1.85;;;21.30;99.90;;;;;;5021066;28;20034;-54
2022/09/28 09:00:20;;;;;;;4.55;2.63;;;21.50;99.90;;;;;;5027502;28;20440;-54
2022/09/28 09:02:47;;;;;;;2.25;1.83;;;;;;;;;;5021673;28;20045;-54
2022/09/28 09:05:18;;;;;;;3.25;2.08;;;20.40;99.90;;;;;;5022740;28;20653;-55
2022/09/28 09:08:02;;;;;;;3.65;2.05;;;20.40;99.90;;;;;;5008625;28;20049;-54
2022/09/28 09:10:50;;;;;;;3.40;2.38;;;19.90;99.90;;;;;;5024618;28;20561;-54
2022/09/28 09:13:40;;;;;;;3.65;3.03;;;19.80;99.90;;;;;;5020234;28;20394;-54
2022/09/28 09:16:28;;;;;;;4.30;2.80;;;20.60;99.90;;;;;;5026818;28;20087;-54
2022/09/28 09:18:55;;;;;;;2.97;2.30;;;;;;;;;;5026410;28;20025;-54
2022/09/28 09:21:36;;;;;;;3.33;2.42;;;22.90;99.90;;;;;;5024562;28;20037;-55
2022/09/28 09:24:23;;;;;;;6.07;3.58;;;22.40;99.90;;;;;;5020493;28;20026;-54
2022/09/28 09:26:52;;;;;;;5.68;3.90;;;;;;;;;;5007488;28;20046;-54
2022/09/28 09:29:42;;;;;;;4.70;2.90;;;23.40;99.90;;;;;;5009074;28;20618;-54
2022/09/28 09:32:30;;;;;;;5.70;2.90;;;22.50;99.90;;;;;;4971769;28;20034;-54
2022/09/28 09:35:04;;;;;;;6.57;3.15;;;22.60;99.90;;;;;;4985388;28;20037;-54
2022/09/28 09:37:45;;;;;;;5.47;3.80;;;23.20;99.90;;;;;;4992235;28;20513;-55
2022/09/28 09:40:21;;;;;;;5.15;3.15;;;22.90;99.90;;;;;;5007348;28;20599;-54
2022/09/28 09:43:29;;;;;;;5.90;3.72;;;22.60;99.90;;;;;;5009291;28;20060;-54
2022/09/28 09:46:03;;;;;;;4.85;3.15;;;22.50;99.90;;;;;;4932047;29;20172;-55
2022/09/28 09:48:35;;;;;;;5.18;3.50;;;;;;;;;;4931036;29;20047;-54
2022/09/28 09:51:12;;;;;;;4.05;2.80;;;23.50;99.90;;;;;;4930819;29;20036;-55
2022/09/28 09:53:44;;;;;;;4.97;3.25;;;22.60;99.90;;;;;;4927924;29;20055;-55
2022/09/28 09:56:42;;;;;;;4.78;2.60;;;22.30;99.90;;;;;;4931639;29;20559;-55
2022/09/28 09:59:13;;;;;;;7.00;3.80;;;22.10;99.90;;;;;;4931906;29;20032;-55
2022/09/28 10:01:40;;;;;;;5.28;4.18;;;22.50;99.90;;;;;;4930541;29;20526;-54
2022/09/28 10:04:17;;;;;;;5.07;3.78;;;22.70;99.90;;;;;;4936384;28;20069;-53
2022/09/28 10:06:44;;;;;;;5.43;4.03;;;;;;;;;;4945393;28;20035;-55
2022/09/28 10:09:13;;;;;;;5.72;4.07;;;;;;;;;;4949861;28;20105;-55
2022/09/28 10:11:43;;;;;;;7.22;3.92;;;25.30;99.90;;;;;;4948952;28;20470;-56
2022/09/28 10:14:23;;;;;;;8.30;4.13;;;23.80;99.90;;;;;;4945672;28;20047;-53
2022/09/28 10:16:52;;;;;;;6.10;3.60;;;24.20;99.90;;;;;;4947679;29;20035;-56
2022/09/28 10:19:20;;;;;;;7.60;5.88;;;23.50;99.90;;;;;;4965781;28;20092;-56
2022/09/28 10:21:50;;;;;;;9.82;6.18;;;24.60;99.90;;;;;;5019214;28;20021;-55
2022/09/28 10:24:46;;;;;;;6.85;5.18;;;24.50;99.90;;;;;;5018907;28;20034;-55
2022/09/28 10:27:20;;;;;;;9.50;4.97;;;24.60;99.90;;;;;;4986339;28;20387;-55
2022/09/28 10:29:51;;;;;;;9.00;5.50;;;24.10;99.90;;;;;;4988472;28;20111;-54
2022/09/28 10:32:24;;;;;;;6.95;5.07;;;24.40;99.90;;;;;;4956712;28;20049;-55
2022/09/28 10:34:52;;;;;;;8.45;5.43;;;23.70;99.90;;;;;;4986956;28;20034;-54
2022/09/28 10:37:18;;;;;;;9.60;4.97;;;24.10;99.90;;;;;;4986575;28;20042;-55
2022/09/28 10:39:54;;;;;;;8.95;5.35;;;23.40;99.90;;;;;;4988374;28;20065;-53
2022/09/28 10:42:25;;;;;;;6.45;4.47;;;23.80;99.90;;;;;;4986614;28;20447;-54
2022/09/28 10:44:54;;;;;;;8.30;5.00;;;;;;;;;;4985686;28;20052;-56
2022/09/28 10:47:21;;;;;;;4.45;3.10;;;;;;;;;;4985414;28;20088;-54
2022/09/28 10:49:51;;;;;;;5.88;4.32;;;23.60;99.90;;;;;;4982355;28;20089;-56
2022/09/28 10:52:37;;;;;;;4.78;3.90;;;23.60;99.90;;;;;;4972198;28;20073;-54
2022/09/28 10:55:26;;;;;;;5.55;4.50;;;23.70;99.90;;;;;;4991565;28;20426;-54
2022/09/28 10:57:52;;;;;;;5.38;4.35;;;23.90;99.90;;;;;;4988483;28;20038;-54
2022/09/28 11:00:33;;;;;;;6.07;4.35;;;;;;;;;;4976177;28;20027;-54
2022/09/28 11:03:00;;;;;;;7.07;4.75;;;24.00;99.90;;;;;;4995855;28;20034;-54
2022/09/28 11:05:27;;;;;;;5.05;3.83;;;;;;;;;;5021232;28;20034;-53
2022/09/28 11:07:54;;;;;;;8.82;4.70;;;;;;;;;;5030419;28;20022;-53
2022/09/28 11:10:22;;;;;;;6.75;4.78;;;;;;;;;;5028239;28;20040;-53
2022/09/28 11:12:49;;;;;;;7.90;5.50;;;24.60;99.90;;;;;;5023836;28;20034;-55
2022/09/28 11:15:21;;;;;;;6.60;5.32;;;24.10;99.90;;;;;;5028578;28;20033;-54
2022/09/28 11:17:47;;;;;;;9.82;6.45;;;23.90;99.90;;;;;;5020269;28;20080;-55
2022/09/28 11:20:24;;;;;;;8.00;5.40;;;24.60;99.90;;;;;;5027737;28;20057;-54
2022/09/28 11:22:56;;;;;;;8.02;5.65;;;24.60;99.90;;;;;;5025022;28;20021;-55
2022/09/28 11:25:30;;;;;;;7.78;5.43;;;24.40;99.90;;;;;;5047457;28;20083;-54
2022/09/28 11:28:03;;;;;;;5.13;3.92;;;23.90;99.90;;;;;;5028555;28;20033;-54
2022/09/28 11:30:47;;;;;;;7.47;6.45;;;23.10;99.90;;;;;;5022685;28;20577;-54
2022/09/28 11:33:38;;;;;;;7.53;5.53;;;24.00;99.90;;;;;;5022298;28;20128;-54
2022/09/28 11:36:12;;;;;;;9.35;7.78;;;24.00;99.90;;;;;;5030311;28;20491;-54
2022/09/28 11:38:47;;;;;;;7.95;6.90;;;;;;;;;;5026153;28;20061;-54
2022/09/28 11:55:17;;;;;;;9.38;7.57;;;25.10;99.90;;;;;;5057010;27;20412;-53
2022/09/28 11:57:46;;;;;;;11.88;9.13;;;;;;;;;;5084476;28;20047;-53
2022/09/28 12:00:12;;;;;;;8.80;7.93;;;;;;;;;;5061709;28;20039;-59
2022/09/28 12:02:47;;;;;;;9.43;8.05;;;25.90;99.90;;;;;;5078100;28;20229;-53
2022/09/28 12:05:24;;;;;;;10.63;8.25;;;25.90;99.90;;;;;;5076052;28;20062;-54
2022/09/28 12:07:53;;;;;;;9.60;8.55;;;;;;;;;;5085442;28;20032;-53
2022/09/28 12:10:34;;;;;;;9.68;8.45;;;25.60;99.90;;;;;;5076376;28;20063;-53
2022/09/28 12:13:13;;;;;;;10.00;8.50;;;25.60;99.90;;;;;;5073200;28;20108;-54
2022/09/28 12:15:42;;;;;;;9.98;8.93;;;25.60;99.90;;;;;;5081822;28;20028;-53
2022/09/28 12:18:24;;;;;;;12.38;8.90;;;25.50;99.90;;;;;;5081068;28;20040;-54
2022/09/28 12:21:18;;;;;;;13.52;12.10;;;25.30;99.90;;;;;;5083711;28;20036;-54
2022/09/28 12:23:45;;;;;;;9.45;8.02;;;25.20;99.90;;;;;;5075276;28;20056;-55
2022/09/28 12:26:52;;;;;;;8.75;7.13;;;25.20;99.90;;;;;;5076917;28;20032;-55
2022/09/28 12:29:26;;;;;;;9.93;8.93;;;25.10;99.90;;;;;;5029232;28;20037;-54
2022/09/28 12:31:59;;;;;;;9.02;8.10;;;;;;;;;;5039531;28;20028;-49
2022/09/28 12:34:25;;;;;;;11.15;8.40;;;26.10;99.90;;;;;;5057008;28;20021;-58
2022/09/28 12:37:20;;;;;;;11.05;9.77;;;25.80;99.90;;;;;;5038902;28;20041;-57
2022/09/28 12:52:27;;;;;;;8.85;7.75;;;26.90;99.90;;;;;;4993302;28;20499;-53
2022/09/28 12:55:24;;;;;;;9.90;8.23;;;26.30;99.90;;;;;;5007691;28;20089;-51
2022/09/28 12:57:57;;;;;;;8.25;7.20;;;26.30;99.90;;;;;;5004513;28;20038;-53
2022/09/28 13:00:28;;;;;;;9.10;7.63;;;25.50;99.90;;;;;;5000863;28;20038;-50
2022/09/28 13:03:30;;;;;;;12.23;10.93;;;25.80;99.90;;;;;;4995479;28;20067;-53
2022/09/28 13:06:23;;;;;;;13.00;10.45;;;25.90;99.90;;;;;;4999496;28;20728;-54
2022/09/28 13:09:19;;;;;;;9.68;8.68;;;25.90;99.90;;;;;;4990689;28;20133;-53
2022/09/28 13:12:16;;;;;;;12.35;9.57;;;25.40;99.90;;;;;;4995438;28;20061;-52
2022/09/28 13:14:45;;;;;;;22.20;9.65;;;25.70;99.90;;;;;;4946625;28;20491;-52
2022/09/28 13:17:31;;;;;;;11.05;9.82;;;26.00;99.90;;;;;;4946095;28;20047;-52
2022/09/28 13:19:58;;;;;;;11.65;9.68;;;25.90;99.90;;;;;;4946910;29;20082;-52
2022/09/28 13:22:29;;;;;;;11.45;9.57;;;25.60;99.90;;;;;;4945935;28;20090;-57
2022/09/28 13:24:58;;;;;;;10.93;9.63;;;25.60;99.90;;;;;;4931013;29;20083;-53
2022/09/28 13:27:36;;;;;;;11.77;10.45;;;25.40;99.90;;;;;;4947073;28;20434;-51
2022/09/28 13:30:08;;;;;;;9.73;8.73;;;25.50;99.90;;;;;;4914722;28;20494;-51
2022/09/28 13:32:35;;;;;;;10.43;9.35;;;25.70;99.90;;;;;;4947103;29;20032;-53
2022/09/28 13:35:01;;;;;;;10.80;8.65;;;25.40;99.90;;;;;;4951718;28;20027;-53
2022/09/28 13:37:28;;;;;;;11.10;9.43;;;25.60;99.90;;;;;;4933825;29;20494;-53
2022/09/28 13:39:58;;;;;;;12.85;10.57;;;25.40;99.90;;;;;;4947257;29;20043;-51
2022/09/28 13:42:36;;;;;;;11.85;10.07;;;25.10;99.90;;;;;;4948794;28;20036;-52
2022/09/28 13:45:19;;;;;;;12.40;9.77;;;24.70;99.90;;;;;;4950069;28;20566;-51
2022/09/28 13:47:51;;;;;;;11.57;10.45;;;24.70;99.90;;;;;;4947255;28;20059;-50
2022/09/28 13:50:21;;;;;;;;;;;24.50;99.90;;;;;;4906293;29;20051;-49
2022/09/28 13:53:02;;;;;;;10.93;9.65;;;24.60;99.90;;;;;;4934557;29;19913;-49